Time;durP1;ratioP1;P1;durP2;ratioP2;P2;SDS_P1;SDS_P2;PMS_P1;PMS_P2;Temp;Humidity;BMP_temperature;BMP_pressure;BME280_temperature;BME280_humidity;BME280_pressure;Samples;Min_cycle;Max_cycle;Signal;HPM_P1;HPM_P2
2023/12/31 00:01:57;;;;;;;1.10;1.00;;;8.20;99.90;;;;;;4993499;28;20041;-67
2023/12/31 00:04:23;;;;;;;1.10;1.00;;;8.10;99.90;;;;;;4993260;28;20077;-67
2023/12/31 00:06:48;;;;;;;1.23;0.88;;;8.10;99.90;;;;;;4993435;28;20038;-67
2023/12/31 00:09:14;;;;;;;0.80;0.80;;;8.00;99.90;;;;;;4993148;28;20046;-67
2023/12/31 00:11:40;;;;;;;0.90;0.90;;;8.00;99.90;;;;;;4993342;28;20046;-68
2023/12/31 00:14:05;;;;;;;1.70;0.80;;;8.00;99.90;;;;;;4992853;28;20417;-67
2023/12/31 00:16:33;;;;;;;1.00;0.80;;;7.90;99.90;;;;;;4993236;28;20121;-68
2023/12/31 00:18:58;;;;;;;1.70;1.10;;;7.90;99.90;;;;;;4991359;28;20422;-67
2023/12/31 00:21:24;;;;;;;0.82;0.82;;;7.90;99.90;;;;;;4993213;28;20038;-68
2023/12/31 00:23:50;;;;;;;0.80;0.80;;;7.80;99.90;;;;;;4993216;28;20149;-67
2023/12/31 00:26:15;;;;;;;0.70;0.70;;;7.80;99.90;;;;;;4991983;28;20038;-66
2023/12/31 00:28:41;;;;;;;0.90;0.90;;;7.70;99.90;;;;;;4991596;28;20038;-67
2023/12/31 00:31:07;;;;;;;0.80;0.80;;;8.40;99.90;;;;;;4992840;28;20038;-67
2023/12/31 00:33:32;;;;;;;0.80;0.80;;;7.70;99.90;;;;;;4991529;28;20048;-66
2023/12/31 00:35:58;;;;;;;1.83;1.00;;;7.70;99.90;;;;;;4991912;28;20045;-67
2023/12/31 00:38:24;;;;;;;0.65;0.65;;;7.60;99.90;;;;;;4993001;28;20050;-68
2023/12/31 00:40:50;;;;;;;0.75;0.75;;;7.90;99.90;;;;;;4991308;28;20477;-67
2023/12/31 00:43:15;;;;;;;0.60;0.60;;;7.60;99.90;;;;;;4992921;28;20516;-67
2023/12/31 00:45:41;;;;;;;0.60;0.60;;;7.60;99.90;;;;;;4992689;28;20386;-67
2023/12/31 00:48:07;;;;;;;0.60;0.60;;;7.80;99.90;;;;;;4992743;28;20036;-68
2023/12/31 00:50:32;;;;;;;0.60;0.60;;;7.60;99.90;;;;;;4992934;28;20042;-66
2023/12/31 00:52:58;;;;;;;0.80;0.80;;;7.70;99.90;;;;;;4991302;28;20097;-66
2023/12/31 00:55:24;;;;;;;1.00;0.93;;;7.70;99.90;;;;;;4992768;28;20050;-66
2023/12/31 00:57:49;;;;;;;1.02;0.80;;;7.70;99.90;;;;;;4991791;28;20505;-65
2023/12/31 01:00:15;;;;;;;0.77;0.70;;;7.70;99.90;;;;;;4992679;28;20049;-65
2023/12/31 01:02:41;;;;;;;1.02;0.90;;;7.70;99.90;;;;;;4992764;28;20054;-65
2023/12/31 01:05:07;;;;;;;0.70;0.70;;;7.80;99.90;;;;;;4991191;28;20050;-65
2023/12/31 01:07:32;;;;;;;0.75;0.75;;;7.80;99.90;;;;;;4992498;28;20046;-65
2023/12/31 01:09:58;;;;;;;0.70;0.70;;;7.80;99.90;;;;;;4992439;28;20046;-66
2023/12/31 01:12:24;;;;;;;0.68;0.68;;;7.90;99.90;;;;;;4992476;28;20089;-66
2023/12/31 01:14:50;;;;;;;1.33;1.00;;;7.90;99.90;;;;;;4992409;28;20078;-65
2023/12/31 01:17:16;;;;;;;0.75;0.75;;;8.10;99.90;;;;;;4992535;28;20120;-65
2023/12/31 01:19:41;;;;;;;1.15;0.82;;;7.90;99.90;;;;;;4990961;28;20594;-65
2023/12/31 01:22:07;;;;;;;0.85;0.80;;;7.80;99.90;;;;;;4992595;28;20371;-68
2023/12/31 01:24:33;;;;;;;0.70;0.70;;;7.80;99.90;;;;;;4992565;28;20046;-66
2023/12/31 01:26:58;;;;;;;0.70;0.70;;;8.20;99.90;;;;;;4992593;28;20047;-65
2023/12/31 01:29:24;;;;;;;0.77;0.77;;;8.00;99.90;;;;;;4992679;28;20046;-65
2023/12/31 01:31:50;;;;;;;0.73;0.73;;;7.80;99.90;;;;;;4996049;28;20132;-65
2023/12/31 01:34:16;;;;;;;0.80;0.80;;;7.80;99.90;;;;;;4995972;28;20097;-65
2023/12/31 01:36:41;;;;;;;0.70;0.70;;;7.80;99.90;;;;;;4994696;28;20502;-66
2023/12/31 01:39:07;;;;;;;0.82;0.82;;;8.00;99.90;;;;;;4996071;28;20039;-65
2023/12/31 01:41:33;;;;;;;0.60;0.60;;;8.30;99.90;;;;;;4996151;28;20466;-66
2023/12/31 01:44:04;;;;;;;1.50;0.82;;;7.70;99.90;;;;;;4996104;28;20034;-66
2023/12/31 01:46:31;;;;;;;0.70;0.70;;;7.70;99.90;;;;;;4994556;28;20460;-65
2023/12/31 01:48:58;;;;;;;0.98;0.93;;;7.70;99.90;;;;;;4995901;28;20046;-65
2023/12/31 01:51:25;;;;;;;0.70;0.70;;;7.90;99.90;;;;;;4995933;28;20068;-65
2023/12/31 01:53:52;;;;;;;1.02;0.90;;;7.70;99.90;;;;;;4995988;28;20407;-66
2023/12/31 01:56:19;;;;;;;0.85;0.70;;;7.70;99.90;;;;;;4995922;28;20046;-65
2023/12/31 01:58:46;;;;;;;1.25;0.90;;;7.70;99.90;;;;;;4995808;28;20039;-66
2023/12/31 02:01:12;;;;;;;0.73;0.70;;;7.70;99.90;;;;;;4995702;28;20039;-66
2023/12/31 02:03:38;;;;;;;0.70;0.70;;;8.00;99.90;;;;;;4995409;28;20039;-65
2023/12/31 02:06:04;;;;;;;0.80;0.80;;;8.00;99.90;;;;;;4995655;28;20034;-65
2023/12/31 02:08:29;;;;;;;0.70;0.70;;;7.70;99.90;;;;;;4994272;28;20406;-67
2023/12/31 02:10:55;;;;;;;1.00;0.90;;;7.70;99.90;;;;;;4995230;28;20517;-66
2023/12/31 02:13:21;;;;;;;0.80;0.80;;;7.70;99.90;;;;;;4995269;28;20054;-67
2023/12/31 02:15:47;;;;;;;1.10;0.90;;;7.70;99.90;;;;;;4995494;28;20045;-68
2023/12/31 02:18:12;;;;;;;0.60;0.60;;;8.00;99.90;;;;;;4995561;28;20129;-65
2023/12/31 02:20:38;;;;;;;0.75;0.75;;;7.80;99.90;;;;;;4994152;28;20050;-65
2023/12/31 02:23:05;;;;;;;0.80;0.80;;;7.70;99.90;;;;;;4995360;28;20109;-64
2023/12/31 02:25:37;;;;;;;0.90;0.88;;;7.80;99.90;;;;;;4995270;28;20121;-65
2023/12/31 02:28:03;;;;;;;0.73;0.73;;;7.70;99.90;;;;;;4995322;28;20050;-64
2023/12/31 02:30:28;;;;;;;0.80;0.75;;;7.80;99.90;;;;;;4993705;28;20125;-65
2023/12/31 02:32:54;;;;;;;0.70;0.70;;;7.70;99.90;;;;;;4995188;28;20545;-66
2023/12/31 02:35:20;;;;;;;0.75;0.75;;;7.70;99.90;;;;;;4995180;28;20042;-66
2023/12/31 02:37:45;;;;;;;0.80;0.80;;;7.90;99.90;;;;;;4995079;28;20068;-65
2023/12/31 02:40:11;;;;;;;0.63;0.63;;;7.70;99.90;;;;;;4994993;28;20046;-65
2023/12/31 02:42:37;;;;;;;0.70;0.70;;;7.70;99.90;;;;;;4994818;28;20157;-65
2023/12/31 02:45:03;;;;;;;0.85;0.85;;;7.60;99.90;;;;;;4994959;28;20043;-65
2023/12/31 02:47:28;;;;;;;0.85;0.82;;;7.70;99.90;;;;;;4994929;28;20042;-65
2023/12/31 02:49:54;;;;;;;1.90;1.00;;;8.00;99.90;;;;;;4994886;28;20072;-66
2023/12/31 02:52:19;;;;;;;0.60;0.60;;;7.80;99.90;;;;;;4994621;28;20478;-66
2023/12/31 02:54:45;;;;;;;0.73;0.73;;;7.80;99.90;;;;;;4994780;28;20556;-65
2023/12/31 02:57:11;;;;;;;0.90;0.90;;;7.80;99.90;;;;;;4994763;28;20602;-66
2023/12/31 02:59:37;;;;;;;0.82;0.82;;;7.80;99.90;;;;;;4994593;28;20046;-66
2023/12/31 03:02:04;;;;;;;0.70;0.70;;;7.80;99.90;;;;;;4994542;28;20506;-66
2023/12/31 03:04:30;;;;;;;0.70;0.70;;;7.80;99.90;;;;;;4993392;28;20118;-65
2023/12/31 03:06:55;;;;;;;0.60;0.60;;;7.80;99.90;;;;;;4994583;28;20125;-65
2023/12/31 03:09:21;;;;;;;0.60;0.60;;;7.80;99.90;;;;;;4994509;28;20434;-65
2023/12/31 03:11:48;;;;;;;0.60;0.60;;;8.10;99.90;;;;;;4994492;28;20494;-69
2023/12/31 03:14:14;;;;;;;0.80;0.80;;;7.80;99.90;;;;;;4994091;28;20192;-65
2023/12/31 03:16:46;;;;;;;0.65;0.65;;;7.70;99.90;;;;;;4992899;28;20132;-65
2023/12/31 03:19:13;;;;;;;0.60;0.60;;;7.60;99.90;;;;;;4994455;28;20038;-67
2023/12/31 03:21:39;;;;;;;0.70;0.70;;;7.50;99.90;;;;;;4994344;28;20046;-66
2023/12/31 03:24:05;;;;;;;0.70;0.70;;;7.50;99.90;;;;;;4994275;28;20046;-66
2023/12/31 03:26:31;;;;;;;0.80;0.80;;;7.40;99.90;;;;;;4994281;28;20038;-66
2023/12/31 03:28:57;;;;;;;0.77;0.77;;;7.60;99.90;;;;;;4993977;28;20085;-65
2023/12/31 03:31:22;;;;;;;1.42;0.90;;;7.40;99.90;;;;;;4994161;28;20046;-66
2023/12/31 03:33:48;;;;;;;0.60;0.60;;;7.40;99.90;;;;;;4994094;28;20053;-65
2023/12/31 03:36:13;;;;;;;0.70;0.70;;;7.30;99.90;;;;;;4994020;28;20048;-65
2023/12/31 03:38:39;;;;;;;0.70;0.70;;;7.50;99.90;;;;;;4993875;28;20065;-65
2023/12/31 03:41:05;;;;;;;1.00;0.80;;;7.40;99.90;;;;;;4993652;28;20494;-65
2023/12/31 03:43:31;;;;;;;0.65;0.65;;;7.30;99.90;;;;;;4993648;28;20084;-66
2023/12/31 03:45:59;;;;;;;0.80;0.70;;;7.30;99.90;;;;;;4992615;28;20092;-65
2023/12/31 03:48:26;;;;;;;0.60;0.60;;;7.30;99.90;;;;;;4993752;28;20046;-65
2023/12/31 03:50:52;;;;;;;0.88;0.82;;;7.40;99.90;;;;;;4992205;28;20053;-66
2023/12/31 03:53:18;;;;;;;0.82;0.82;;;7.20;99.90;;;;;;4993148;28;20449;-66
2023/12/31 03:55:44;;;;;;;0.70;0.70;;;7.20;99.90;;;;;;4993668;28;20117;-65
2023/12/31 03:58:09;;;;;;;0.60;0.60;;;7.20;99.90;;;;;;4993653;28;20042;-65
2023/12/31 04:00:35;;;;;;;0.70;0.70;;;7.10;99.90;;;;;;4992000;28;20054;-66
2023/12/31 04:03:02;;;;;;;0.70;0.70;;;7.20;99.90;;;;;;4993534;28;20042;-65
2023/12/31 04:05:27;;;;;;;0.57;0.57;;;7.10;99.90;;;;;;4993503;28;20038;-66
2023/12/31 04:07:53;;;;;;;0.70;0.70;;;7.10;99.90;;;;;;4993146;28;20447;-65
2023/12/31 04:10:19;;;;;;;0.70;0.70;;;7.10;99.90;;;;;;4993389;28;20034;-66
2023/12/31 04:12:44;;;;;;;0.68;0.68;;;7.10;99.90;;;;;;4993130;28;20466;-65
2023/12/31 04:15:10;;;;;;;0.68;0.68;;;7.10;99.90;;;;;;4991787;28;20490;-65
2023/12/31 04:17:36;;;;;;;0.60;0.60;;;7.10;99.90;;;;;;4993337;28;20100;-65
2023/12/31 04:20:02;;;;;;;0.70;0.70;;;7.10;99.90;;;;;;4993318;28;20042;-65
2023/12/31 04:22:28;;;;;;;0.70;0.70;;;7.10;99.90;;;;;;4993213;28;20074;-65
2023/12/31 04:24:54;;;;;;;0.65;0.65;;;7.20;99.90;;;;;;4992890;28;20081;-67
2023/12/31 04:27:19;;;;;;;0.60;0.60;;;7.50;99.90;;;;;;4991602;28;20459;-65
2023/12/31 04:29:45;;;;;;;0.85;0.85;;;7.20;99.90;;;;;;4992966;28;20042;-66
2023/12/31 04:32:11;;;;;;;0.60;0.60;;;7.20;99.90;;;;;;4993119;28;20046;-67
2023/12/31 04:34:37;;;;;;;0.68;0.68;;;7.20;99.90;;;;;;4993031;28;20045;-66
2023/12/31 04:37:03;;;;;;;0.70;0.65;;;7.20;99.90;;;;;;4993081;28;20050;-67
2023/12/31 04:39:29;;;;;;;0.88;0.88;;;7.20;99.90;;;;;;4991555;28;20046;-66
2023/12/31 04:41:54;;;;;;;0.75;0.60;;;7.20;99.90;;;;;;4992738;28;20046;-67
2023/12/31 04:44:21;;;;;;;0.70;0.70;;;7.20;99.90;;;;;;4992653;28;20483;-67
2023/12/31 04:46:46;;;;;;;0.80;0.80;;;8.00;99.90;;;;;;4992912;28;20042;-67
2023/12/31 04:49:16;;;;;;;0.90;0.90;;;7.20;99.90;;;;;;4992904;28;20045;-67
2023/12/31 04:51:42;;;;;;;0.70;0.70;;;8.30;99.90;;;;;;4992952;28;20398;-67
2023/12/31 04:54:08;;;;;;;0.80;0.80;;;7.20;99.90;;;;;;4992819;28;20038;-67
2023/12/31 04:56:34;;;;;;;0.60;0.60;;;7.30;99.90;;;;;;4991253;28;20089;-67
2023/12/31 04:59:00;;;;;;;0.90;0.90;;;7.30;99.90;;;;;;4991451;28;20455;-67
2023/12/31 05:01:31;;;;;;;0.60;0.60;;;7.20;99.90;;;;;;4992784;28;20053;-68
2023/12/31 05:03:58;;;;;;;0.90;0.90;;;7.40;99.90;;;;;;4992783;28;20044;-70
2023/12/31 05:06:24;;;;;;;1.20;0.82;;;7.30;99.90;;;;;;4995898;28;20062;-67
2023/12/31 05:08:50;;;;;;;0.80;0.80;;;7.20;99.90;;;;;;4996876;28;20128;-68
2023/12/31 05:11:16;;;;;;;0.70;0.70;;;7.20;99.90;;;;;;4995320;28;20050;-66
2023/12/31 05:13:43;;;;;;;1.25;1.05;;;7.30;99.90;;;;;;4995189;28;20138;-66
2023/12/31 05:16:13;;;;;;;0.75;0.75;;;7.30;99.90;;;;;;4995123;28;20042;-66
2023/12/31 05:18:43;;;;;;;1.00;0.90;;;7.30;99.90;;;;;;4996651;28;20496;-66
2023/12/31 05:21:13;;;;;;;0.70;0.70;;;7.30;99.90;;;;;;4996478;28;20042;-66
2023/12/31 05:23:39;;;;;;;0.70;0.70;;;7.30;99.90;;;;;;4996503;28;20097;-65
2023/12/31 05:26:05;;;;;;;0.90;0.90;;;7.30;99.90;;;;;;4996452;28;20481;-65
2023/12/31 05:28:30;;;;;;;1.42;0.90;;;7.30;99.90;;;;;;4996444;28;20100;-66
2023/12/31 05:30:57;;;;;;;2.60;1.00;;;7.30;99.90;;;;;;4996327;28;20482;-66
2023/12/31 05:33:22;;;;;;;0.93;0.90;;;7.40;99.90;;;;;;4996351;28;20042;-66
2023/12/31 05:35:48;;;;;;;0.77;0.70;;;7.30;99.90;;;;;;4996312;28;20505;-66
2023/12/31 05:38:14;;;;;;;0.80;0.80;;;7.40;99.90;;;;;;4995310;28;20429;-69
2023/12/31 05:40:40;;;;;;;1.08;0.90;;;7.30;99.90;;;;;;4996118;28;20046;-66
2023/12/31 05:43:05;;;;;;;1.00;1.00;;;7.30;99.90;;;;;;4996153;28;20375;-66
2023/12/31 05:45:31;;;;;;;0.88;0.88;;;7.60;99.90;;;;;;4995776;28;20038;-66
2023/12/31 05:47:57;;;;;;;0.88;0.88;;;7.40;99.90;;;;;;4996082;28;20030;-66
2023/12/31 05:50:22;;;;;;;0.88;0.80;;;7.40;99.90;;;;;;4996050;28;20042;-65
2023/12/31 05:52:48;;;;;;;0.90;0.90;;;7.40;99.90;;;;;;4995904;28;20453;-65
2023/12/31 05:55:14;;;;;;;0.80;0.73;;;7.40;99.90;;;;;;4995890;28;20046;-66
2023/12/31 05:57:40;;;;;;;0.80;0.80;;;7.40;99.90;;;;;;4995955;28;20445;-65
2023/12/31 06:00:07;;;;;;;1.35;1.23;;;7.40;99.90;;;;;;4995540;28;20125;-66
2023/12/31 06:02:33;;;;;;;0.80;0.80;;;7.40;99.90;;;;;;4995561;28;20121;-65
2023/12/31 06:04:59;;;;;;;1.10;1.00;;;7.40;99.90;;;;;;4995686;28;20125;-66
2023/12/31 06:07:24;;;;;;;1.00;0.90;;;7.40;99.90;;;;;;4995670;28;20049;-65
2023/12/31 06:09:50;;;;;;;0.88;0.82;;;7.40;99.90;;;;;;4995367;28;20410;-65
2023/12/31 06:12:16;;;;;;;0.80;0.80;;;7.40;99.90;;;;;;4995407;28;20105;-65
2023/12/31 06:14:41;;;;;;;0.82;0.82;;;7.40;99.90;;;;;;4995588;28;20410;-66
2023/12/31 06:17:07;;;;;;;1.30;0.98;;;7.50;99.90;;;;;;4993436;28;20050;-65
2023/12/31 06:19:33;;;;;;;1.08;0.98;;;7.50;99.90;;;;;;4995197;28;20082;-65
2023/12/31 06:21:59;;;;;;;1.00;0.95;;;7.50;99.90;;;;;;4995184;28;20046;-66
2023/12/31 06:24:25;;;;;;;1.13;0.98;;;8.00;99.90;;;;;;4993819;28;20588;-65
2023/12/31 06:26:51;;;;;;;0.70;0.70;;;7.50;99.90;;;;;;4994057;28;20180;-65
2023/12/31 06:29:17;;;;;;;0.70;0.70;;;7.60;99.90;;;;;;4995304;28;20042;-65
2023/12/31 06:31:42;;;;;;;1.33;0.80;;;7.60;99.90;;;;;;4995288;28;20397;-66
2023/12/31 06:34:08;;;;;;;0.80;0.80;;;7.60;99.90;;;;;;4995254;28;20470;-65
2023/12/31 06:36:34;;;;;;;0.80;0.80;;;7.60;99.90;;;;;;4993721;28;20427;-64
2023/12/31 06:39:00;;;;;;;1.70;0.77;;;7.60;99.90;;;;;;4995083;28;20070;-65
2023/12/31 06:41:26;;;;;;;0.85;0.85;;;7.70;99.90;;;;;;4995084;28;20636;-66
2023/12/31 06:43:51;;;;;;;1.00;0.88;;;7.70;99.90;;;;;;4995076;28;20042;-66
2023/12/31 06:46:17;;;;;;;1.25;0.90;;;7.70;99.90;;;;;;4994977;28;20034;-66
2023/12/31 06:48:43;;;;;;;0.70;0.70;;;7.80;99.90;;;;;;4993479;28;20045;-66
2023/12/31 06:51:09;;;;;;;1.20;0.95;;;7.80;99.90;;;;;;4994944;28;20034;-67
2023/12/31 06:53:34;;;;;;;0.70;0.70;;;7.80;99.90;;;;;;4994893;28;20097;-67
2023/12/31 06:56:04;;;;;;;0.80;0.80;;;7.90;99.90;;;;;;4994872;28;20410;-67
2023/12/31 06:58:30;;;;;;;0.85;0.85;;;7.90;99.90;;;;;;4994837;28;20124;-67
2023/12/31 07:00:56;;;;;;;0.75;0.75;;;7.90;99.90;;;;;;4994405;28;20113;-67
2023/12/31 07:03:21;;;;;;;0.90;0.90;;;7.90;99.90;;;;;;4994424;28;20113;-67
2023/12/31 07:05:47;;;;;;;0.85;0.85;;;8.00;99.90;;;;;;4993341;28;20046;-67
2023/12/31 07:08:14;;;;;;;0.70;0.70;;;8.00;99.90;;;;;;4994646;28;20049;-67
2023/12/31 07:10:39;;;;;;;0.80;0.77;;;8.20;99.90;;;;;;4994664;28;20078;-68
2023/12/31 07:13:05;;;;;;;0.90;0.90;;;8.00;99.90;;;;;;4994396;28;20489;-67
2023/12/31 07:15:31;;;;;;;0.70;0.70;;;8.20;99.90;;;;;;4994564;28;20049;-67
2023/12/31 07:17:57;;;;;;;1.50;0.82;;;8.10;99.90;;;;;;4994435;28;20038;-67
2023/12/31 07:20:23;;;;;;;0.85;0.85;;;8.10;99.90;;;;;;4993960;28;20043;-67
2023/12/31 07:22:48;;;;;;;0.70;0.70;;;8.10;99.90;;;;;;4994018;28;20085;-67
2023/12/31 07:25:14;;;;;;;0.77;0.77;;;8.20;99.90;;;;;;4994275;28;20129;-67
2023/12/31 07:27:40;;;;;;;0.85;0.80;;;8.10;99.90;;;;;;4993389;28;20133;-67
2023/12/31 07:30:06;;;;;;;0.80;0.80;;;8.20;99.90;;;;;;4993929;28;20050;-67
2023/12/31 07:32:32;;;;;;;0.70;0.70;;;8.20;99.90;;;;;;4994201;28;20038;-67
2023/12/31 07:34:57;;;;;;;1.05;0.80;;;8.20;99.90;;;;;;4994077;28;20049;-67
2023/12/31 07:37:23;;;;;;;0.85;0.85;;;8.20;99.90;;;;;;4994029;28;20113;-67
2023/12/31 07:39:49;;;;;;;0.88;0.88;;;8.20;99.90;;;;;;4993704;28;20039;-67
2023/12/31 07:42:15;;;;;;;0.82;0.82;;;8.20;99.90;;;;;;4993997;28;20041;-67
2023/12/31 07:44:40;;;;;;;0.73;0.73;;;8.20;99.90;;;;;;4993925;28;20462;-67
2023/12/31 07:47:06;;;;;;;0.82;0.82;;;8.30;99.90;;;;;;4993585;28;20052;-67
2023/12/31 07:49:33;;;;;;;0.63;0.63;;;8.20;99.90;;;;;;4993649;28;20089;-67
2023/12/31 07:51:59;;;;;;;1.17;0.93;;;8.20;99.90;;;;;;4992752;28;20061;-65
2023/12/31 07:54:25;;;;;;;1.00;0.90;;;8.50;99.90;;;;;;4993708;28;20048;-65
2023/12/31 07:56:51;;;;;;;0.60;0.60;;;8.30;99.90;;;;;;4976041;28;20057;-65
2023/12/31 07:59:17;;;;;;;1.00;0.90;;;8.30;99.90;;;;;;4993548;28;20038;-65
2023/12/31 08:01:43;;;;;;;1.48;0.75;;;8.60;99.90;;;;;;4993582;28;20068;-66
2023/12/31 08:04:09;;;;;;;0.82;0.82;;;8.30;99.90;;;;;;4993545;28;20444;-65
2023/12/31 08:06:34;;;;;;;0.90;0.85;;;8.30;99.90;;;;;;4993523;28;20077;-65
2023/12/31 08:09:00;;;;;;;0.60;0.60;;;8.40;99.90;;;;;;4993494;28;20046;-65
2023/12/31 08:11:26;;;;;;;0.70;0.70;;;8.30;99.90;;;;;;4993148;28;20405;-65
2023/12/31 08:13:52;;;;;;;0.80;0.80;;;8.30;99.90;;;;;;4991697;28;20047;-65
2023/12/31 08:16:19;;;;;;;0.73;0.73;;;8.30;99.90;;;;;;4993333;28;20125;-65
2023/12/31 08:18:45;;;;;;;0.70;0.70;;;8.30;99.90;;;;;;4993353;28;20046;-65
2023/12/31 08:21:11;;;;;;;0.80;0.80;;;8.30;99.90;;;;;;4993236;28;20402;-65
2023/12/31 08:23:36;;;;;;;0.70;0.70;;;8.30;99.90;;;;;;4993163;28;20445;-65
2023/12/31 08:26:03;;;;;;;0.90;0.90;;;8.30;99.90;;;;;;4993196;28;20038;-66
2023/12/31 08:28:29;;;;;;;0.70;0.70;;;8.20;99.90;;;;;;4993100;28;20049;-65
2023/12/31 08:30:55;;;;;;;0.80;0.80;;;8.30;99.90;;;;;;4993011;28;20451;-65
2023/12/31 08:33:21;;;;;;;0.80;0.80;;;8.20;99.90;;;;;;4992708;28;20069;-65
2023/12/31 08:35:48;;;;;;;0.90;0.90;;;8.30;99.90;;;;;;4992988;28;20038;-68
2023/12/31 08:38:13;;;;;;;0.65;0.65;;;8.30;99.90;;;;;;4992880;28;20038;-66
2023/12/31 08:40:39;;;;;;;0.70;0.70;;;8.30;99.90;;;;;;4992755;28;20050;-65
2023/12/31 08:43:05;;;;;;;1.00;0.90;;;8.40;99.90;;;;;;4992987;28;20046;-65
2023/12/31 08:45:32;;;;;;;0.80;0.80;;;8.40;99.90;;;;;;4992866;28;20090;-64
2023/12/31 08:47:58;;;;;;;0.70;0.70;;;8.40;99.90;;;;;;4992863;28;20126;-64
2023/12/31 08:50:24;;;;;;;0.70;0.70;;;8.70;99.90;;;;;;4992820;28;20046;-65
2023/12/31 08:52:50;;;;;;;0.70;0.70;;;8.60;99.90;;;;;;4992893;28;20425;-64
2023/12/31 08:55:16;;;;;;;0.93;0.90;;;8.60;99.90;;;;;;4992660;28;20088;-66
2023/12/31 08:57:47;;;;;;;0.93;0.77;;;8.70;99.90;;;;;;4992471;28;20038;-65
2023/12/31 09:00:13;;;;;;;0.90;0.90;;;8.70;99.90;;;;;;4992730;28;20125;-66
2023/12/31 09:02:39;;;;;;;0.80;0.80;;;8.80;99.90;;;;;;4992891;28;20045;-67
2023/12/31 09:05:05;;;;;;;0.63;0.63;;;8.80;99.90;;;;;;4992389;28;20050;-67
2023/12/31 09:07:34;;;;;;;0.70;0.70;;;8.80;99.90;;;;;;4992604;28;20081;-67
2023/12/31 09:10:02;;;;;;;0.70;0.70;;;9.00;99.90;;;;;;4992737;28;20050;-67
2023/12/31 09:12:28;;;;;;;0.80;0.80;;;8.80;99.90;;;;;;4991188;28;20054;-68
2023/12/31 09:14:53;;;;;;;0.93;0.77;;;8.80;99.90;;;;;;4992304;28;20516;-68
2023/12/31 09:17:19;;;;;;;0.85;0.85;;;8.80;99.90;;;;;;4992688;28;20367;-66
2023/12/31 09:19:45;;;;;;;1.17;1.08;;;8.90;99.90;;;;;;4990978;28;20112;-64
2023/12/31 09:22:11;;;;;;;0.90;0.90;;;8.90;99.90;;;;;;4992619;28;20046;-67
2023/12/31 09:24:36;;;;;;;0.82;0.82;;;8.90;99.90;;;;;;4992229;28;20164;-66
2023/12/31 09:27:03;;;;;;;1.38;0.70;;;8.70;99.90;;;;;;4992173;28;20030;-67
2023/12/31 09:29:29;;;;;;;0.73;0.73;;;8.90;99.90;;;;;;4992503;28;20505;-67
2023/12/31 09:31:55;;;;;;;0.90;0.90;;;8.90;99.90;;;;;;4992442;28;20512;-67
2023/12/31 09:34:21;;;;;;;0.80;0.80;;;8.90;99.90;;;;;;4990956;28;20046;-67
2023/12/31 09:36:47;;;;;;;0.90;0.90;;;8.90;99.90;;;;;;4992098;28;20054;-71
2023/12/31 09:39:13;;;;;;;0.85;0.85;;;9.00;99.90;;;;;;4992381;28;20402;-67
2023/12/31 09:41:40;;;;;;;0.88;0.88;;;9.00;99.90;;;;;;4992162;28;20039;-68
2023/12/31 09:44:07;;;;;;;0.73;0.73;;;9.00;99.90;;;;;;4992050;28;20077;-67
2023/12/31 09:46:38;;;;;;;0.75;0.75;;;9.00;99.90;;;;;;4991035;28;20042;-71
2023/12/31 09:49:05;;;;;;;1.35;0.90;;;9.10;99.90;;;;;;4992386;28;20050;-69
2023/12/31 09:51:32;;;;;;;0.90;0.90;;;9.10;99.90;;;;;;4994144;28;20100;-67
2023/12/31 09:53:59;;;;;;;1.10;1.05;;;9.00;99.90;;;;;;4978431;28;20042;-68
2023/12/31 09:56:27;;;;;;;1.10;1.00;;;9.10;99.90;;;;;;4995514;28;20046;-68
2023/12/31 09:58:55;;;;;;;0.70;0.70;;;9.10;99.90;;;;;;4995433;28;20085;-67
2023/12/31 10:01:24;;;;;;;0.70;0.70;;;9.40;99.90;;;;;;4995493;28;20101;-67
2023/12/31 10:03:50;;;;;;;0.80;0.80;;;9.10;99.90;;;;;;4995752;28;20406;-67
2023/12/31 10:06:16;;;;;;;1.55;1.05;;;9.20;99.90;;;;;;4995666;28;20042;-67
2023/12/31 10:08:43;;;;;;;1.70;1.00;;;9.10;99.90;;;;;;4995398;28;20559;-68
2023/12/31 10:11:09;;;;;;;1.20;1.10;;;9.20;99.90;;;;;;4995809;28;20042;-66
2023/12/31 10:13:35;;;;;;;1.30;1.20;;;9.20;99.90;;;;;;4995313;28;20455;-65
2023/12/31 10:16:12;;;;;;;0.93;0.93;;;9.20;99.90;;;;;;4995542;28;20173;-65
2023/12/31 10:18:38;;;;;;;0.85;0.85;;;9.30;99.90;;;;;;4993796;28;20065;-65
2023/12/31 10:21:04;;;;;;;1.13;1.02;;;9.40;99.90;;;;;;4995477;28;20042;-65
2023/12/31 10:23:29;;;;;;;1.00;1.00;;;9.40;99.90;;;;;;4995363;28;20046;-65
2023/12/31 10:25:57;;;;;;;0.80;0.80;;;9.30;99.90;;;;;;4995341;28;20038;-65
2023/12/31 10:28:23;;;;;;;1.05;0.90;;;9.50;99.90;;;;;;4995008;28;20049;-65
2023/12/31 10:30:49;;;;;;;0.60;0.60;;;9.50;99.90;;;;;;4977518;28;20042;-66
2023/12/31 10:33:15;;;;;;;1.63;0.90;;;9.50;99.90;;;;;;4995364;28;20060;-65
2023/12/31 10:35:41;;;;;;;0.77;0.77;;;9.60;99.90;;;;;;4993670;28;20053;-65
2023/12/31 10:38:07;;;;;;;1.10;1.02;;;9.60;99.90;;;;;;4995097;28;20046;-66
2023/12/31 10:40:33;;;;;;;0.73;0.73;;;9.70;99.90;;;;;;4994956;28;20482;-66
2023/12/31 10:42:59;;;;;;;0.90;0.90;;;9.70;99.90;;;;;;4995046;28;20066;-67
2023/12/31 10:45:26;;;;;;;1.23;1.13;;;9.70;99.90;;;;;;4995088;28;20520;-65
2023/12/31 10:47:56;;;;;;;0.75;0.75;;;9.70;99.90;;;;;;4994969;28;20042;-66
2023/12/31 10:50:25;;;;;;;0.95;0.93;;;9.80;99.90;;;;;;4994995;28;20040;-66
2023/12/31 10:53:01;;;;;;;0.85;0.73;;;9.90;99.90;;;;;;4994826;28;20125;-66
2023/12/31 10:55:27;;;;;;;2.05;1.00;;;10.10;99.90;;;;;;4994571;28;20038;-66
2023/12/31 10:57:53;;;;;;;0.80;0.80;;;10.10;99.90;;;;;;4994829;28;20041;-66
2023/12/31 11:00:19;;;;;;;0.90;0.90;;;10.20;99.90;;;;;;4994458;28;20134;-66
2023/12/31 11:02:46;;;;;;;0.60;0.60;;;10.20;99.90;;;;;;4994639;28;20384;-66
2023/12/31 11:05:17;;;;;;;0.70;0.70;;;10.10;99.90;;;;;;4994415;28;20042;-66
2023/12/31 11:07:43;;;;;;;0.85;0.85;;;10.20;99.90;;;;;;4994367;28;20157;-66
2023/12/31 11:10:09;;;;;;;0.82;0.82;;;10.40;99.90;;;;;;4994232;28;20038;-66
2023/12/31 11:12:36;;;;;;;0.75;0.75;;;10.20;99.90;;;;;;4993921;28;20066;-65
2023/12/31 11:15:18;;;;;;;1.00;0.90;;;10.10;99.90;;;;;;4994100;28;20402;-65
2023/12/31 11:18:21;;;;;;;0.88;0.80;;;10.00;99.90;;;;;;4994404;28;20398;-66
2023/12/31 11:20:50;;;;;;;0.68;0.68;;;9.90;99.90;;;;;;4992713;28;20084;-66
2023/12/31 11:23:39;;;;;;;0.80;0.80;;;10.00;99.90;;;;;;4993997;28;20081;-71
2023/12/31 11:26:08;;;;;;;0.60;0.60;;;9.80;99.90;;;;;;4994195;28;20092;-70
2023/12/31 11:28:36;;;;;;;1.00;0.90;;;9.80;99.90;;;;;;4976446;28;20038;-71
2023/12/31 11:31:09;;;;;;;1.20;1.10;;;9.70;99.90;;;;;;4994189;28;20074;-71
2023/12/31 11:33:35;;;;;;;0.70;0.70;;;9.60;99.90;;;;;;4992525;28;20050;-67
2023/12/31 11:36:07;;;;;;;0.93;0.90;;;9.60;99.90;;;;;;4994043;28;20109;-67
2023/12/31 11:39:07;;;;;;;1.10;1.00;;;9.50;99.90;;;;;;4993760;28;20125;-68
2023/12/31 11:41:48;;;;;;;0.88;0.88;;;9.40;99.90;;;;;;4982175;28;20060;-66
2023/12/31 11:44:40;;;;;;;0.90;0.90;;;9.40;99.90;;;;;;4993831;28;20042;-67
2023/12/31 11:47:27;;;;;;;;;;;9.30;99.90;;;;;;4994024;28;20074;-68
2023/12/31 11:49:54;;;;;;;1.48;1.10;;;9.30;99.90;;;;;;4993816;28;19918;-68
2023/12/31 11:52:21;;;;;;;1.10;1.00;;;9.60;99.90;;;;;;4992223;28;20065;-68
2023/12/31 11:54:47;;;;;;;1.13;1.02;;;9.30;99.90;;;;;;4993326;28;20125;-69
2023/12/31 11:57:16;;;;;;;0.98;0.98;;;9.30;99.90;;;;;;4993514;28;20076;-69
2023/12/31 11:59:44;;;;;;;0.88;0.88;;;9.20;99.90;;;;;;4992018;28;20050;-68
2023/12/31 12:02:11;;;;;;;0.70;0.70;;;9.00;99.90;;;;;;4993556;28;20058;-67
2023/12/31 12:04:37;;;;;;;0.60;0.60;;;8.70;99.90;;;;;;4993521;28;20100;-67
2023/12/31 12:07:04;;;;;;;0.60;0.60;;;8.40;99.90;;;;;;4993492;28;20046;-69
2023/12/31 12:09:31;;;;;;;0.50;0.50;;;8.20;99.90;;;;;;4991841;28;20038;-68
2023/12/31 12:12:02;;;;;;;0.57;0.57;;;8.00;99.90;;;;;;4991838;28;20117;-67
2023/12/31 12:14:28;;;;;;;0.68;0.68;;;8.00;99.90;;;;;;4992810;28;20129;-68
2023/12/31 12:16:54;;;;;;;0.57;0.57;;;8.30;99.90;;;;;;4992962;28;20046;-67
2023/12/31 12:19:24;;;;;;;1.00;0.60;;;8.20;99.90;;;;;;4993058;28;20375;-70
2023/12/31 12:21:51;;;;;;;0.50;0.50;;;;;;;;;;4991893;28;20042;-69
2023/12/31 12:24:18;;;;;;;0.50;0.50;;;;;;;;;;4975703;28;20038;-67
2023/12/31 12:26:47;;;;;;;4.47;4.13;;;;;;;;;;4991862;28;20088;-69
2023/12/31 12:29:16;;;;;;;1.48;1.38;;;;;;;;;;4993163;28;20042;-66
2023/12/31 12:31:46;;;;;;;0.80;0.80;;;;;;;;;;4992850;28;20096;-65
2023/12/31 12:34:14;;;;;;;0.50;0.50;;;;;;;;;;4993183;28;20038;-64
2023/12/31 12:36:40;;;;;;;0.82;0.65;;;;;;;;;;4993415;28;20050;-67
2023/12/31 12:39:13;;;;;;;0.50;0.50;;;;;;;;;;4991366;28;20401;-65
2023/12/31 12:41:39;;;;;;;0.80;0.60;;;;;;;;;;4991538;28;20038;-65
2023/12/31 12:44:09;;;;;;;0.40;0.40;;;;;;;;;;4992646;28;20054;-65
2023/12/31 12:46:35;;;;;;;0.60;0.60;;;;;;;;;;4992970;28;20054;-71
2023/12/31 12:49:03;;;;;;;0.60;0.60;;;;;;;;;;4975131;28;20049;-72
2023/12/31 12:51:30;;;;;;;0.80;0.80;;;;;;;;;;4991671;28;20038;-67
2023/12/31 12:53:56;;;;;;;0.60;0.60;;;8.30;99.90;;;;;;4992526;28;20065;-67
2023/12/31 12:56:22;;;;;;;0.70;0.70;;;8.30;99.90;;;;;;4991579;28;20030;-73
2023/12/31 12:58:49;;;;;;;0.50;0.50;;;8.30;99.90;;;;;;4991245;28;20070;-73